createdAt,value
2022-11-18T00:01:21.839Z,28.83
2022-11-18T00:03:49.934Z,32.40
2022-11-18T00:06:22.448Z,30.13
2022-11-18T00:08:49.874Z,28.40
2022-11-18T00:11:41.541Z,28.35
2022-11-18T00:14:21.514Z,26.73
2022-11-18T00:17:15.372Z,38.05
2022-11-18T00:19:42.443Z,29.05
2022-11-18T00:22:13.322Z,49.92
2022-11-18T00:24:40.602Z,34.53
2022-11-18T00:27:07.901Z,35.10
2022-11-18T00:29:35.526Z,31.17
2022-11-18T00:32:03.009Z,35.40
2022-11-18T00:34:30.811Z,34.67
2022-11-18T00:36:58.071Z,36.40
2022-11-18T00:39:26.642Z,34.30
2022-11-18T00:42:12.540Z,30.65
2022-11-18T00:44:39.838Z,38.13
2022-11-18T00:47:07.080Z,34.75
2022-11-18T00:49:34.449Z,34.38
2022-11-18T00:52:02.234Z,36.85
2022-11-18T00:54:29.646Z,36.53
2022-11-18T00:56:56.893Z,31.40
2022-11-18T00:59:24.141Z,28.38
2022-11-18T01:01:51.378Z,38.28
2022-11-18T01:04:18.771Z,35.67
2022-11-18T01:06:46.090Z,38.33
2022-11-18T01:09:13.313Z,33.03
2022-11-18T01:11:58.887Z,35.60
2022-11-18T01:16:57.610Z,38.67
2022-11-18T01:19:25.892Z,36.80
2022-11-18T01:21:53.159Z,35.28
2022-11-18T01:24:20.483Z,35.80
2022-11-18T01:26:47.797Z,35.70
2022-11-18T01:29:16.239Z,32.70
2022-11-18T01:32:02.056Z,35.58
2022-11-18T01:34:31.043Z,42.42
2022-11-18T01:36:58.848Z,35.08
2022-11-18T01:39:26.200Z,33.78
2022-11-18T01:41:53.657Z,35.45
2022-11-18T01:44:58.680Z,32.15
2022-11-18T01:47:37.259Z,32.65
2022-11-18T01:50:05.655Z,31.08
2022-11-18T01:52:34.397Z,28.27
2022-11-18T01:55:07.750Z,34.05
2022-11-18T01:57:35.772Z,32.17
2022-11-18T02:00:05.913Z,32.63
2022-11-18T02:02:35.395Z,31.52
2022-11-18T02:05:04.775Z,32.03
2022-11-18T02:07:38.516Z,24.67
2022-11-18T02:10:07.417Z,29.92
2022-11-18T02:12:35.883Z,35.05
2022-11-18T02:15:04.125Z,31.85
2022-11-18T02:17:47.112Z,29.85
2022-11-18T02:20:32.666Z,29.58
2022-11-18T02:26:13.045Z,30.83
2022-11-18T02:28:58.548Z,22.25
2022-11-18T02:31:25.785Z,25.65
2022-11-18T02:34:09.447Z,26.80
2022-11-18T02:36:42.982Z,27.00
2022-11-18T02:39:30.167Z,29.73
2022-11-18T02:42:00.285Z,25.38
2022-11-18T02:44:29.449Z,28.00
2022-11-18T02:47:01.562Z,27.27
2022-11-18T02:49:38.896Z,23.15
2022-11-18T02:52:08.020Z,24.63
2022-11-18T02:54:38.161Z,25.05
2022-11-18T02:57:06.367Z,22.67
2022-11-18T02:59:33.853Z,26.63
2022-11-18T03:02:02.697Z,27.02
2022-11-18T03:04:31.175Z,21.85
2022-11-18T03:07:19.839Z,28.13
2022-11-18T03:09:51.349Z,26.83
2022-11-18T03:12:21.778Z,24.63
2022-11-18T03:15:11.599Z,23.02
2022-11-18T03:17:58.273Z,22.63
2022-11-18T03:20:32.101Z,26.08
2022-11-18T03:23:13.276Z,31.63
2022-11-18T03:26:30.791Z,22.65
2022-11-18T03:29:26.566Z,26.92
2022-11-18T03:32:11.284Z,23.13
2022-11-18T03:34:49.514Z,23.45
2022-11-18T03:37:20.004Z,23.27
2022-11-18T03:39:55.394Z,27.15
2022-11-18T03:42:37.797Z,25.98
2022-11-18T03:45:29.489Z,27.63
2022-11-18T03:48:06.281Z,24.30
2022-11-18T03:50:39.814Z,25.40
2022-11-18T03:53:08.582Z,29.25
2022-11-18T03:55:40.842Z,23.65
2022-11-18T03:58:22.811Z,25.02
2022-11-18T04:00:57.207Z,26.13
2022-11-18T04:03:26.386Z,28.85
2022-11-18T04:06:03.575Z,24.88
2022-11-18T04:08:37.089Z,25.05
2022-11-18T04:11:35.553Z,28.33
2022-11-18T04:14:04.591Z,30.05
2022-11-18T04:16:31.882Z,24.42
2022-11-18T04:19:05.800Z,26.55
2022-11-18T04:21:33.458Z,28.02
2022-11-18T04:24:00.763Z,26.02
2022-11-18T04:26:27.943Z,25.05
2022-11-18T04:28:55.246Z,29.55
2022-11-18T04:31:22.441Z,25.52
2022-11-18T04:33:49.726Z,35.72
2022-11-18T04:36:16.867Z,35.63
2022-11-18T04:38:43.993Z,29.42
2022-11-18T04:41:11.273Z,28.85
2022-11-18T04:43:38.629Z,28.35
2022-11-18T04:46:06.009Z,29.65
2022-11-18T04:48:33.520Z,25.77
2022-11-18T04:51:05.084Z,28.48
2022-11-18T04:53:32.394Z,32.25
2022-11-18T04:56:08.761Z,30.52
2022-11-18T04:58:35.785Z,33.40
2022-11-18T05:01:02.982Z,35.90
2022-11-18T05:03:30.444Z,31.65
2022-11-18T05:06:02.460Z,32.55
2022-11-18T05:08:29.583Z,33.05
2022-11-18T05:11:16.916Z,32.35
2022-11-18T05:13:44.158Z,29.00
2022-11-18T05:16:11.642Z,34.00
2022-11-18T05:18:38.856Z,30.88
2022-11-18T05:21:06.713Z,31.52
2022-11-18T05:23:34.192Z,36.65
2022-11-18T05:26:05.705Z,28.63
2022-11-18T05:28:33.142Z,35.10
2022-11-18T05:31:00.715Z,31.90
2022-11-18T05:33:27.861Z,29.10
2022-11-18T05:35:57.781Z,31.88
2022-11-18T05:38:24.969Z,35.42
2022-11-18T05:40:52.245Z,42.17
2022-11-18T05:43:19.477Z,35.30
2022-11-18T05:45:47.265Z,36.30
2022-11-18T05:48:14.640Z,36.83
2022-11-18T05:50:42.074Z,35.60
2022-11-18T05:53:09.433Z,33.83
2022-11-18T05:55:42.581Z,31.77
2022-11-18T05:58:09.894Z,35.38
2022-11-18T06:00:37.573Z,38.45
2022-11-18T06:03:14.387Z,33.60
2022-11-18T06:05:41.922Z,32.35
2022-11-18T06:08:10.484Z,35.95
2022-11-18T06:10:40.626Z,33.35
2022-11-18T06:13:14.784Z,34.13
2022-11-18T06:15:44.668Z,35.85
2022-11-18T06:18:26.696Z,34.63
2022-11-18T06:20:58.372Z,36.17
2022-11-18T06:23:25.952Z,35.08
2022-11-18T06:25:53.884Z,33.38
2022-11-18T06:28:22.376Z,33.65
2022-11-18T06:30:49.877Z,40.50
2022-11-18T06:33:17.215Z,34.45
2022-11-18T06:35:44.575Z,32.95
2022-11-18T06:38:11.737Z,38.40
2022-11-18T06:40:38.792Z,34.08
2022-11-18T06:43:28.740Z,36.45
2022-11-18T06:46:18.459Z,30.83
2022-11-18T06:48:45.669Z,34.15
2022-11-18T06:51:13.059Z,32.47
2022-11-18T06:53:40.544Z,28.02
2022-11-18T06:56:10.313Z,30.55
2022-11-18T06:58:37.644Z,32.00
2022-11-18T07:01:13.547Z,24.90
2022-11-18T07:03:41.904Z,35.22
2022-11-18T07:06:10.407Z,32.38
2022-11-18T07:08:39.458Z,28.48
2022-11-18T07:11:09.098Z,32.80
2022-11-18T07:13:42.147Z,30.95
2022-11-18T07:16:17.806Z,29.13
2022-11-18T07:18:46.531Z,27.98
2022-11-18T07:21:18.478Z,28.15
2022-11-18T07:23:46.385Z,30.98
2022-11-18T07:26:13.715Z,30.80
2022-11-18T07:28:41.006Z,31.23
2022-11-18T07:31:14.337Z,26.42
2022-11-18T07:33:43.316Z,26.58
2022-11-18T07:36:15.877Z,29.50
2022-11-18T07:38:43.488Z,30.20
2022-11-18T07:41:11.986Z,29.95
2022-11-18T07:43:40.037Z,26.95
2022-11-18T07:46:24.939Z,25.98
2022-11-18T07:48:54.006Z,24.63
2022-11-18T07:51:26.404Z,25.73
2022-11-18T07:53:54.333Z,33.80
2022-11-18T07:56:22.034Z,36.78
2022-11-18T07:58:53.705Z,24.20
2022-11-18T08:01:23.421Z,28.98
2022-11-18T08:03:50.933Z,25.98
2022-11-18T08:06:19.711Z,36.58
2022-11-18T08:08:47.655Z,25.67
2022-11-18T08:11:22.172Z,34.28
2022-11-18T08:16:23.143Z,24.25
2022-11-18T08:18:51.279Z,24.23
2022-11-18T08:21:20.456Z,29.23
2022-11-18T08:23:52.680Z,24.85
2022-11-18T08:26:21.142Z,30.42
2022-11-18T08:28:48.811Z,28.88
2022-11-18T08:31:20.261Z,24.88
2022-11-18T08:33:48.043Z,28.15
2022-11-18T08:36:21.465Z,25.17
2022-11-18T08:38:49.197Z,30.65
2022-11-18T08:41:30.792Z,30.35
2022-11-18T08:43:58.235Z,27.95
2022-11-18T08:46:25.320Z,26.92
2022-11-18T08:48:52.504Z,32.58
2022-11-18T08:51:19.836Z,29.73
2022-11-18T08:53:47.117Z,23.85
2022-11-18T08:56:17.593Z,25.80
2022-11-18T08:58:45.452Z,25.25
2022-11-18T09:01:13.479Z,21.02
2022-11-18T09:03:41.062Z,24.98
2022-11-18T09:06:23.069Z,20.63
2022-11-18T09:08:50.335Z,27.80
2022-11-18T09:11:20.986Z,22.05
2022-11-18T09:16:36.525Z,20.48
2022-11-18T09:19:24.804Z,17.48
2022-11-18T09:21:51.691Z,19.27
2022-11-18T09:24:19.058Z,16.73
2022-11-18T09:26:46.576Z,20.52
2022-11-18T09:29:13.775Z,19.48
2022-11-18T09:31:40.986Z,18.23
2022-11-18T09:34:10.550Z,15.98
2022-11-18T09:36:38.149Z,14.63
2022-11-18T09:39:05.421Z,14.88
2022-11-18T09:41:47.715Z,17.77
2022-11-18T09:44:36.086Z,17.38
2022-11-18T09:47:22.001Z,16.67
2022-11-18T09:49:50.315Z,16.10
2022-11-18T09:52:24.940Z,16.45
2022-11-18T09:54:52.287Z,20.17
2022-11-18T09:57:50.950Z,15.65
2022-11-18T10:00:25.992Z,20.05
2022-11-18T10:03:16.138Z,16.63
2022-11-18T10:05:43.519Z,18.52
2022-11-18T10:08:35.549Z,21.38
2022-11-18T10:11:14.804Z,16.83
2022-11-18T10:14:11.804Z,13.95
2022-11-18T10:16:57.853Z,15.10
2022-11-18T10:20:01.882Z,14.05
2022-11-18T10:22:53.132Z,13.25
2022-11-18T10:25:20.502Z,15.23
2022-11-18T10:27:50.053Z,19.45
2022-11-18T10:30:26.384Z,14.15
2022-11-18T10:32:54.195Z,13.63
2022-11-18T10:35:34.424Z,12.55
2022-11-18T10:38:22.226Z,14.80
2022-11-18T10:41:06.357Z,16.67
2022-11-18T10:43:52.980Z,15.40
2022-11-18T10:46:28.578Z,17.63
2022-11-18T10:49:17.670Z,17.98
2022-11-18T10:52:03.680Z,16.23
2022-11-18T10:54:30.981Z,15.18
2022-11-18T10:57:06.132Z,17.90
2022-11-18T11:02:41.556Z,18.15
2022-11-18T11:05:21.991Z,20.77
2022-11-18T11:08:34.605Z,15.95
2022-11-18T11:10:58.419Z,19.17
2022-11-18T11:13:31.898Z,15.90
2022-11-18T11:16:03.733Z,17.27
2022-11-18T11:18:43.813Z,19.40
2022-11-18T11:21:16.517Z,21.23
2022-11-18T11:23:45.071Z,16.60
2022-11-18T11:29:50.391Z,15.43
2022-11-18T11:32:36.593Z,21.60
2022-11-18T11:35:31.465Z,16.77
2022-11-18T11:38:28.437Z,18.48
2022-11-18T11:41:06.024Z,18.70
2022-11-18T11:43:33.015Z,15.40
2022-11-18T11:46:12.353Z,19.48
2022-11-18T11:49:07.400Z,11.45
2022-11-18T11:51:48.194Z,32.87
2022-11-18T11:54:15.456Z,16.70
2022-11-18T11:56:46.979Z,18.13
2022-11-18T11:59:22.066Z,15.68
2022-11-18T12:02:27.045Z,17.38
2022-11-18T12:05:22.493Z,13.90
2022-11-18T12:07:57.617Z,12.60
2022-11-18T12:13:38.677Z,8.38
2022-11-18T12:16:43.262Z,6.90
2022-11-18T12:19:17.252Z,4.82
2022-11-18T12:21:47.581Z,6.50
2022-11-18T12:24:25.068Z,7.95
2022-11-18T12:26:53.109Z,5.43
2022-11-18T12:29:20.518Z,5.20
2022-11-18T12:31:50.821Z,4.15
2022-11-18T12:34:29.650Z,6.30
2022-11-18T12:36:57.344Z,4.97
2022-11-18T12:39:24.709Z,2.97
2022-11-18T12:42:15.928Z,3.25
2022-11-18T12:44:44.835Z,5.50
2022-11-18T12:47:16.070Z,3.63
2022-11-18T12:49:46.084Z,3.72
2022-11-18T12:52:31.895Z,2.55
2022-11-18T12:55:16.805Z,7.70
2022-11-18T12:57:44.356Z,4.00
2022-11-18T13:00:23.432Z,4.35
2022-11-18T13:02:55.187Z,3.25
2022-11-18T13:05:25.032Z,3.38
2022-11-18T13:08:16.032Z,2.47
2022-11-18T13:11:13.557Z,4.60
2022-11-18T13:13:42.295Z,4.80
2022-11-18T13:16:39.538Z,2.80
2022-11-18T13:19:07.103Z,4.97
2022-11-18T13:21:53.128Z,2.90
2022-11-18T13:24:22.919Z,4.05
2022-11-18T13:26:57.849Z,4.22
2022-11-18T13:29:35.874Z,3.28
2022-11-18T13:32:23.567Z,3.40
2022-11-18T13:34:54.306Z,2.28
2022-11-18T13:37:27.542Z,4.93
2022-11-18T13:39:55.740Z,4.30
2022-11-18T13:42:28.461Z,4.03
2022-11-18T13:45:03.575Z,3.20
2022-11-18T13:47:42.643Z,3.17
2022-11-18T13:50:18.705Z,1.88
2022-11-18T13:53:00.939Z,5.72
2022-11-18T13:55:36.494Z,3.85
2022-11-18T13:58:05.366Z,4.38
2022-11-18T14:00:37.284Z,3.03
2022-11-18T14:03:28.486Z,5.38
2022-11-18T14:05:56.962Z,2.78
2022-11-18T14:08:35.758Z,1.98
2022-11-18T14:11:03.982Z,1.83
2022-11-18T14:13:31.228Z,1.52
2022-11-18T14:16:19.682Z,1.73
2022-11-18T14:18:49.015Z,3.00
2022-11-18T14:21:32.349Z,1.88
2022-11-18T14:24:00.233Z,1.30
2022-11-18T14:26:38.962Z,2.60
2022-11-18T14:29:23.176Z,2.42
2022-11-18T14:32:23.684Z,2.28
2022-11-18T14:35:00.677Z,1.50
2022-11-18T14:37:28.283Z,3.00
2022-11-18T14:39:57.604Z,1.50
2022-11-18T14:42:27.356Z,5.85
2022-11-18T14:44:54.823Z,1.58
2022-11-18T14:47:27.636Z,1.58
2022-11-18T14:49:54.711Z,2.70
2022-11-18T14:52:22.092Z,7.10
2022-11-18T14:54:49.370Z,1.10
2022-11-18T14:57:19.268Z,6.00
2022-11-18T14:59:46.921Z,4.22
2022-11-18T15:02:18.118Z,4.00
2022-11-18T15:04:47.631Z,2.22
2022-11-18T15:07:24.407Z,2.70
2022-11-18T15:09:57.928Z,2.38
2022-11-18T15:12:25.262Z,0.77
2022-11-18T15:14:56.183Z,2.17
2022-11-18T15:17:23.469Z,4.18
2022-11-18T15:19:50.629Z,6.60
2022-11-18T15:22:17.925Z,2.03
2022-11-18T15:24:44.913Z,4.32
2022-11-18T15:27:12.050Z,3.90
2022-11-18T15:29:40.598Z,3.95
2022-11-18T15:32:07.673Z,3.00
2022-11-18T15:34:34.814Z,3.15
2022-11-18T15:37:02.503Z,1.85
2022-11-18T15:39:29.474Z,1.92
2022-11-18T15:41:56.821Z,14.18
2022-11-18T15:44:24.882Z,13.40
2022-11-18T15:46:52.166Z,18.75
2022-11-18T15:49:19.406Z,7.38
2022-11-18T15:51:46.706Z,12.95
2022-11-18T15:54:13.848Z,12.32
2022-11-18T15:56:41.973Z,7.00
2022-11-18T15:59:14.022Z,2.92
2022-11-18T16:01:43.475Z,2.63
2022-11-18T16:04:12.449Z,4.88
2022-11-18T16:06:45.098Z,4.50
2022-11-18T16:09:14.587Z,4.35
2022-11-18T16:12:01.215Z,3.03
2022-11-18T16:14:28.461Z,4.15
2022-11-18T16:16:56.827Z,1.50
2022-11-18T16:19:26.837Z,1.75
2022-11-18T16:21:58.848Z,2.33
2022-11-18T16:24:28.938Z,3.15
2022-11-18T16:26:56.545Z,1.67
2022-11-18T16:29:24.521Z,4.03
2022-11-18T16:31:53.080Z,6.55
2022-11-18T16:34:23.866Z,3.50
2022-11-18T16:36:53.551Z,4.28
2022-11-18T16:39:26.289Z,3.50
2022-11-18T16:42:06.950Z,3.85
2022-11-18T16:44:37.945Z,8.65
2022-11-18T16:47:10.821Z,4.75
2022-11-18T16:49:41.486Z,7.75
2022-11-18T16:52:09.441Z,6.45
2022-11-18T16:54:42.996Z,2.55
2022-11-18T16:57:12.312Z,3.65
2022-11-18T16:59:39.492Z,2.17
2022-11-18T17:02:07.214Z,8.13
2022-11-18T17:04:36.548Z,3.50
2022-11-18T17:07:03.973Z,3.22
2022-11-18T17:09:31.218Z,3.33
2022-11-18T17:11:59.113Z,2.60
2022-11-18T17:14:26.359Z,2.75
2022-11-18T17:16:53.667Z,5.15
2022-11-18T17:19:23.376Z,3.97
2022-11-18T17:21:51.754Z,5.10
2022-11-18T17:24:21.985Z,5.60
2022-11-18T17:26:50.243Z,6.40
2022-11-18T17:29:17.629Z,3.70
2022-11-18T17:31:45.071Z,3.75
2022-11-18T17:34:14.217Z,4.47
2022-11-18T17:36:42.384Z,2.47
2022-11-18T17:39:11.231Z,7.90
2022-11-18T17:41:57.396Z,5.20
2022-11-18T17:44:24.876Z,6.72
2022-11-18T17:46:52.093Z,3.00
2022-11-18T17:49:21.492Z,4.22
2022-11-18T17:51:48.763Z,2.35
2022-11-18T17:54:16.734Z,2.83
2022-11-18T17:56:44.246Z,4.93
2022-11-18T17:59:11.841Z,2.13
2022-11-18T18:01:39.044Z,2.25
2022-11-18T18:04:06.403Z,3.13
2022-11-18T18:06:33.553Z,5.82
2022-11-18T18:09:00.786Z,3.35
2022-11-18T18:11:28.662Z,5.45
2022-11-18T18:14:14.170Z,4.70
2022-11-18T18:19:09.421Z,3.67
2022-11-18T18:21:36.708Z,2.10
2022-11-18T18:24:20.069Z,3.17
2022-11-18T18:26:48.364Z,3.65
2022-11-18T18:29:15.734Z,4.72
2022-11-18T18:31:42.852Z,4.95
2022-11-18T18:34:10.008Z,5.85
2022-11-18T18:36:37.585Z,3.00
2022-11-18T18:39:05.241Z,3.72
2022-11-18T18:41:32.987Z,4.53
2022-11-18T18:44:01.349Z,4.35
2022-11-18T18:46:30.170Z,3.80
2022-11-18T18:49:20.644Z,3.35
2022-11-18T18:51:51.124Z,4.03
2022-11-18T18:54:20.813Z,13.25
2022-11-18T18:56:48.106Z,3.08
2022-11-18T18:59:15.337Z,7.97
2022-11-18T19:01:42.680Z,8.75
2022-11-18T19:04:13.446Z,5.82
2022-11-18T19:06:59.809Z,4.72
2022-11-18T19:09:27.758Z,6.85
2022-11-18T19:12:14.080Z,5.57
2022-11-18T19:14:41.657Z,4.88
2022-11-18T19:17:11.951Z,5.13
2022-11-18T19:19:59.685Z,4.78
2022-11-18T19:22:29.116Z,8.23
2022-11-18T19:24:56.621Z,4.55
2022-11-18T19:27:23.885Z,7.30
2022-11-18T19:29:51.306Z,6.75
2022-11-18T19:32:18.736Z,7.93
2022-11-18T19:34:45.860Z,7.45
2022-11-18T19:37:13.012Z,5.82
2022-11-18T19:39:40.145Z,5.88
2022-11-18T19:42:07.958Z,5.80
2022-11-18T19:44:35.062Z,4.35
2022-11-18T19:47:02.286Z,6.95
2022-11-18T19:49:29.445Z,4.05
2022-11-18T19:51:56.566Z,5.07
2022-11-18T19:54:23.810Z,6.15
2022-11-18T19:56:50.818Z,5.65
2022-11-18T19:59:18.061Z,10.00
2022-11-18T20:01:45.357Z,4.20
2022-11-18T20:04:12.571Z,5.38
2022-11-18T20:06:40.655Z,4.78
2022-11-18T20:09:09.478Z,5.03
2022-11-18T20:11:36.748Z,6.88
2022-11-18T20:14:04.233Z,9.85
2022-11-18T20:16:31.775Z,7.53
2022-11-18T20:19:05.037Z,27.50
2022-11-18T20:21:35.532Z,26.00
2022-11-18T20:24:05.052Z,17.73
2022-11-18T20:26:35.375Z,11.13
2022-11-18T20:29:03.027Z,12.52
2022-11-18T20:31:30.469Z,12.73
2022-11-18T20:33:57.659Z,5.80
2022-11-18T20:36:31.475Z,5.65
2022-11-18T20:39:04.655Z,11.07
2022-11-18T20:41:32.698Z,6.95
2022-11-18T20:44:00.524Z,6.28
2022-11-18T20:46:28.442Z,5.35
2022-11-18T20:48:56.131Z,11.02
2022-11-18T20:51:25.812Z,9.95
2022-11-18T20:53:54.767Z,7.70
2022-11-18T20:56:25.009Z,6.50
2022-11-18T20:58:52.454Z,3.95
2022-11-18T21:01:22.566Z,7.78
2022-11-18T21:03:55.546Z,5.88
2022-11-18T21:06:25.555Z,7.38
2022-11-18T21:09:01.372Z,6.95
2022-11-18T21:11:28.936Z,6.63
2022-11-18T21:14:18.555Z,12.20
2022-11-18T21:16:51.376Z,6.18
2022-11-18T21:19:18.863Z,6.13
2022-11-18T21:21:46.220Z,4.43
2022-11-18T21:24:33.289Z,7.07
2022-11-18T21:27:02.097Z,4.47
2022-11-18T21:29:31.481Z,4.75
2022-11-18T21:32:02.905Z,4.72
2022-11-18T21:34:30.156Z,4.38
2022-11-18T21:36:58.564Z,2.88
2022-11-18T21:39:26.144Z,8.48
2022-11-18T21:41:56.713Z,6.22
2022-11-18T21:44:24.968Z,4.68
2022-11-18T21:46:52.473Z,3.92
2022-11-18T21:49:19.743Z,4.18
2022-11-18T21:51:47.064Z,5.57
2022-11-18T21:54:16.161Z,5.60
2022-11-18T21:56:43.474Z,5.00
2022-11-18T21:59:10.632Z,4.82
2022-11-18T22:01:37.740Z,6.07
2022-11-18T22:04:05.865Z,9.05
2022-11-18T22:06:34.680Z,5.57
2022-11-18T22:09:03.331Z,6.93
2022-11-18T22:11:31.046Z,7.10
2022-11-18T22:13:58.584Z,6.97
2022-11-18T22:16:26.965Z,6.13
2022-11-18T22:19:01.480Z,3.63
2022-11-18T22:21:32.603Z,4.80
2022-11-18T22:24:01.391Z,6.78
2022-11-18T22:26:29.568Z,7.28
2022-11-18T22:28:58.376Z,5.45
2022-11-18T22:31:27.588Z,4.82
2022-11-18T22:33:56.317Z,3.50
2022-11-18T22:36:25.320Z,5.70
2022-11-18T22:38:52.952Z,4.60
2022-11-18T22:41:44.047Z,7.13
2022-11-18T22:44:12.599Z,6.32
2022-11-18T22:46:42.082Z,8.70
2022-11-18T22:49:10.985Z,6.78
2022-11-18T22:51:39.183Z,9.45
2022-11-18T22:56:54.807Z,6.28
2022-11-18T22:59:22.102Z,7.22
2022-11-18T23:01:51.762Z,4.90
2022-11-18T23:04:19.312Z,6.45
2022-11-18T23:06:46.607Z,4.50
2022-11-18T23:09:13.983Z,5.40
2022-11-18T23:11:59.943Z,8.95
2022-11-18T23:14:27.412Z,5.72
2022-11-18T23:16:54.738Z,6.28
2022-11-18T23:19:22.247Z,5.43
2022-11-18T23:21:49.513Z,7.30
2022-11-18T23:24:18.607Z,7.43
2022-11-18T23:26:46.335Z,19.45
2022-11-18T23:29:14.904Z,5.68
2022-11-18T23:31:43.797Z,5.22
2022-11-18T23:34:13.023Z,7.28
2022-11-18T23:36:40.734Z,7.68
2022-11-18T23:39:08.264Z,5.30
2022-11-18T23:41:35.638Z,9.25
2022-11-18T23:44:03.461Z,6.80
2022-11-18T23:46:30.704Z,4.07
2022-11-18T23:48:58.296Z,8.43
2022-11-18T23:51:26.705Z,4.88
2022-11-18T23:53:57.660Z,7.13
2022-11-18T23:56:27.388Z,9.75
2022-11-18T23:58:56.891Z,5.55
